Time;durP1;ratioP1;P1;durP2;ratioP2;P2;SDS_P1;SDS_P2;PMS_P1;PMS_P2;Temp;Humidity;BMP_temperature;BMP_pressure;BME280_temperature;BME280_humidity;BME280_pressure;Samples;Min_cycle;Max_cycle;Signal;HPM_P1;HPM_P2
2023/08/07 00:01:00;;;;;;;9.87;2.53;;;;;;;;;;5068907;28;20516;-73
2023/08/07 00:03:25;;;;;;;4.82;2.65;;;;;;;;;;5069990;28;20466;-74
2023/08/07 00:05:55;;;;;;;6.00;3.33;;;;;;;;;;5068796;28;20017;-76
2023/08/07 00:08:20;;;;;;;6.55;3.05;;;;;;;;;;5069941;28;20017;-76
2023/08/07 00:10:45;;;;;;;9.15;3.13;;;;;;;;;;5069003;28;20027;-75
2023/08/07 00:13:10;;;;;;;6.15;3.60;;;;;;;;;;5070227;28;20016;-76
2023/08/07 00:15:37;;;;;;;9.50;2.55;;;;;;;;;;5068618;28;20013;-74
2023/08/07 00:18:03;;;;;;;5.30;2.78;;;;;;;;;;5068636;28;20119;-75
2023/08/07 00:20:28;;;;;;;3.03;2.20;;;;;;;;;;5070033;28;20103;-76
2023/08/07 00:22:53;;;;;;;6.03;1.90;;;;;;;;;;5066987;28;20049;-77
2023/08/07 00:25:18;;;;;;;5.95;1.92;;;;;;;;;;5070245;28;20024;-76
2023/08/07 00:27:43;;;;;;;2.80;2.53;;;;;;;;;;5084548;28;20028;-76
2023/08/07 00:30:09;;;;;;;7.40;1.98;;;;;;;;;;5089995;28;20357;-76
2023/08/07 00:32:34;;;;;;;12.35;2.13;;;;;;;;;;5073408;28;20036;-76
2023/08/07 00:34:59;;;;;;;5.82;2.63;;;;;;;;;;5070230;28;20025;-75
2023/08/07 00:37:24;;;;;;;5.72;2.03;;;;;;;;;;5068073;28;20032;-76
2023/08/07 00:39:49;;;;;;;7.95;2.05;;;;;;;;;;5070233;28;20032;-75
2023/08/07 00:42:14;;;;;;;6.00;3.10;;;;;;;;;;5068302;28;20121;-74
2023/08/07 00:44:40;;;;;;;5.10;1.93;;;;;;;;;;5069929;28;20031;-75
2023/08/07 00:47:05;;;;;;;6.00;1.93;;;;;;;;;;5068825;28;20451;-72
2023/08/07 00:49:30;;;;;;;6.45;2.33;;;;;;;;;;5069547;28;20502;-74
2023/08/07 00:51:56;;;;;;;6.97;3.37;;;;;;;;;;5066744;28;20040;-73
2023/08/07 00:54:21;;;;;;;7.95;3.40;;;;;;;;;;5068440;28;20447;-75
2023/08/07 00:56:46;;;;;;;3.58;2.40;;;;;;;;;;5069815;28;20119;-75
2023/08/07 00:59:12;;;;;;;10.50;2.22;;;;;;;;;;5072716;28;20062;-75
2023/08/07 01:01:38;;;;;;;4.15;2.17;;;;;;;;;;5071436;28;20064;-75
2023/08/07 01:04:03;;;;;;;4.57;2.38;;;;;;;;;;5073619;28;20447;-75
2023/08/07 01:06:28;;;;;;;7.18;2.33;;;;;;;;;;5071007;28;20040;-75
2023/08/07 01:08:53;;;;;;;7.55;2.40;;;;;;;;;;5073199;28;20585;-75
2023/08/07 01:11:22;;;;;;;2.80;1.75;;;;;;;;;;5071657;28;20043;-74
2023/08/07 01:13:55;;;;;;;5.55;2.00;;;;;;;;;;5072962;28;20025;-74
2023/08/07 01:16:26;;;;;;;4.32;2.35;;;;;;;;;;5071411;28;20091;-74
2023/08/07 01:18:52;;;;;;;3.55;2.40;;;;;;;;;;5072929;28;20051;-73
2023/08/07 01:21:18;;;;;;;7.38;3.85;;;;;;;;;;5070994;28;20051;-73
2023/08/07 01:23:44;;;;;;;10.40;3.05;;;;;;;;;;5071942;28;20028;-70
2023/08/07 01:26:09;;;;;;;8.27;1.90;;;;;;;;;;5071447;28;20028;-70
2023/08/07 01:28:38;;;;;;;5.37;1.90;;;;;;;;;;5072945;28;20025;-71
2023/08/07 01:31:04;;;;;;;10.82;2.78;;;;;;;;;;5071035;28;20123;-71
2023/08/07 01:33:32;;;;;;;4.03;2.70;;;;;;;;;;5072762;28;20020;-70
2023/08/07 01:35:58;;;;;;;5.13;2.50;;;;;;;;;;5072400;28;20425;-71
2023/08/07 01:38:25;;;;;;;18.70;3.47;;;;;;;;;;5070971;28;20064;-73
2023/08/07 01:40:50;;;;;;;13.23;2.88;;;;;;;;;;5072704;28;20024;-74
2023/08/07 01:43:16;;;;;;;8.52;4.55;;;;;;;;;;5070844;28;20033;-75
2023/08/07 01:45:41;;;;;;;9.40;2.85;;;;;;;;;;5072859;28;20067;-74
2023/08/07 01:48:06;;;;;;;10.83;3.37;;;;;;;;;;5071539;28;20029;-74
2023/08/07 01:50:32;;;;;;;11.15;4.07;;;;;;;;;;5072460;28;20419;-74
2023/08/07 01:52:57;;;;;;;9.68;3.58;;;;;;;;;;5070739;28;20028;-74
2023/08/07 01:55:22;;;;;;;9.85;4.10;;;;;;;;;;5072328;28;20017;-74
2023/08/07 01:57:48;;;;;;;10.88;3.08;;;;;;;;;;5070742;28;20040;-74
2023/08/07 02:00:13;;;;;;;6.00;3.63;;;;;;;;;;5071849;28;20043;-74
2023/08/07 02:02:38;;;;;;;14.27;2.97;;;;;;;;;;5069605;28;20450;-74
2023/08/07 02:05:04;;;;;;;6.32;2.30;;;;;;;;;;5071116;28;20431;-73
2023/08/07 02:07:29;;;;;;;6.60;3.53;;;;;;;;;;5069655;28;20396;-73
2023/08/07 02:09:54;;;;;;;6.75;2.58;;;;;;;;;;5072195;28;20048;-73
2023/08/07 02:12:19;;;;;;;4.60;2.33;;;;;;;;;;5070523;28;20047;-73
2023/08/07 02:14:45;;;;;;;5.28;3.05;;;;;;;;;;5071661;28;20031;-73
2023/08/07 02:17:10;;;;;;;3.20;1.93;;;;;;;;;;5070189;28;20615;-74
2023/08/07 02:19:35;;;;;;;3.88;2.13;;;;;;;;;;5071734;28;20073;-73
2023/08/07 02:22:00;;;;;;;3.40;2.03;;;;;;;;;;5068781;28;20044;-74
2023/08/07 02:24:26;;;;;;;4.75;2.35;;;;;;;;;;5071648;28;20556;-74
2023/08/07 02:26:51;;;;;;;3.83;1.67;;;;;;;;;;5070087;28;20032;-75
2023/08/07 02:29:16;;;;;;;3.13;2.20;;;;;;;;;;5069993;28;20383;-74
2023/08/07 02:31:41;;;;;;;3.78;1.52;;;;;;;;;;5070064;28;20451;-74
2023/08/07 02:34:06;;;;;;;1.63;1.53;;;;;;;;;;5071859;28;20024;-73
2023/08/07 02:36:32;;;;;;;5.30;2.58;;;;;;;;;;5067830;28;20120;-72
2023/08/07 02:38:57;;;;;;;5.13;2.60;;;;;;;;;;5071484;28;20020;-73
2023/08/07 02:41:22;;;;;;;5.97;2.55;;;;;;;;;;5069928;28;20454;-73
2023/08/07 02:43:47;;;;;;;3.65;2.75;;;;;;;;;;5070019;28;20024;-73
2023/08/07 02:46:12;;;;;;;4.80;2.65;;;;;;;;;;5070010;28;20547;-72
2023/08/07 02:48:39;;;;;;;4.23;2.47;;;;;;;;;;5071518;28;20020;-73
2023/08/07 02:51:04;;;;;;;2.65;1.73;;;;;;;;;;5069098;28;20036;-73
2023/08/07 02:53:29;;;;;;;3.00;1.70;;;;;;;;;;5071201;28;20486;-73
2023/08/07 02:55:54;;;;;;;5.37;2.50;;;;;;;;;;5069875;28;20021;-72
2023/08/07 02:58:19;;;;;;;6.10;2.75;;;;;;;;;;5070665;28;20099;-73
2023/08/07 03:00:45;;;;;;;7.07;2.50;;;;;;;;;;5069824;28;20025;-71
2023/08/07 03:03:10;;;;;;;10.27;3.85;;;;;;;;;;5071059;28;20536;-75
2023/08/07 03:05:35;;;;;;;13.57;4.40;;;;;;;;;;5070485;28;20016;-75
2023/08/07 03:08:00;;;;;;;14.13;5.00;;;;;;;;;;5069924;28;20178;-75
2023/08/07 03:10:25;;;;;;;14.77;6.03;;;;;;;;;;5069535;28;20017;-75
2023/08/07 03:12:50;;;;;;;10.43;5.28;;;;;;;;;;5069287;28;20033;-76
2023/08/07 03:15:16;;;;;;;12.88;5.97;;;;;;;;;;5069330;28;20473;-76
2023/08/07 03:17:41;;;;;;;10.70;5.43;;;;;;;;;;5069133;28;20043;-75
2023/08/07 03:20:06;;;;;;;9.32;5.75;;;;;;;;;;5069810;28;20071;-75
2023/08/07 03:22:31;;;;;;;13.00;4.40;;;;;;;;;;5069056;28;20044;-76
2023/08/07 03:24:56;;;;;;;16.70;4.27;;;;;;;;;;5070972;28;20032;-76
2023/08/07 03:27:22;;;;;;;8.40;4.68;;;;;;;;;;5069010;28;21000;-75
2023/08/07 03:29:47;;;;;;;10.67;3.87;;;;;;;;;;5071129;28;20024;-74
2023/08/07 03:32:12;;;;;;;11.75;3.72;;;;;;;;;;5068972;28;20036;-74
2023/08/07 03:34:37;;;;;;;7.50;3.70;;;;;;;;;;5070454;28;20395;-77
2023/08/07 03:37:02;;;;;;;9.13;3.50;;;;;;;;;;5069059;28;21020;-76
2023/08/07 03:39:28;;;;;;;18.08;4.18;;;;;;;;;;5070657;28;20027;-77
2023/08/07 03:41:53;;;;;;;6.60;5.15;;;;;;;;;;5069079;28;20538;-76
2023/08/07 03:44:18;;;;;;;17.05;3.58;;;;;;;;;;5070711;28;20025;-77
2023/08/07 03:46:43;;;;;;;10.87;5.60;;;;;;;;;;5069470;28;20037;-76
2023/08/07 03:49:08;;;;;;;18.58;4.70;;;;;;;;;;5070363;28;20432;-76
2023/08/07 03:51:34;;;;;;;11.70;4.60;;;;;;;;;;5068912;28;20496;-77
2023/08/07 03:53:59;;;;;;;6.33;3.57;;;;;;;;;;5070754;28;20481;-76
2023/08/07 03:56:24;;;;;;;7.33;4.37;;;;;;;;;;5069151;28;20907;-77
2023/08/07 03:58:50;;;;;;;11.30;3.72;;;;;;;;;;5070436;28;20017;-75
2023/08/07 04:01:15;;;;;;;8.23;3.72;;;;;;;;;;5058059;28;20069;-76
2023/08/07 04:03:40;;;;;;;9.25;3.83;;;;;;;;;;5050642;28;20021;-76
2023/08/07 04:06:05;;;;;;;5.55;2.92;;;;;;;;;;5052160;28;20044;-75
2023/08/07 04:08:30;;;;;;;8.63;4.53;;;;;;;;;;5070295;28;20471;-78
2023/08/07 04:11:00;;;;;;;8.40;2.70;;;;;;;;;;5069214;28;20064;-77
2023/08/07 04:13:25;;;;;;;8.32;3.10;;;;;;;;;;5069935;28;20419;-75
2023/08/07 04:15:50;;;;;;;11.48;3.95;;;;;;;;;;5068346;28;20413;-76
2023/08/07 04:18:16;;;;;;;4.60;2.35;;;;;;;;;;5070005;28;20027;-76
2023/08/07 04:20:42;;;;;;;15.18;2.90;;;;;;;;;;5069558;28;20028;-76
2023/08/07 04:23:07;;;;;;;5.60;2.53;;;;;;;;;;5068616;28;20039;-76
2023/08/07 04:25:32;;;;;;;5.50;3.10;;;;;;;;;;5068859;28;20424;-76
2023/08/07 04:27:57;;;;;;;6.72;2.45;;;;;;;;;;5068622;28;20068;-75
2023/08/07 04:30:22;;;;;;;6.77;2.70;;;;;;;;;;5069591;28;20017;-76
2023/08/07 04:32:47;;;;;;;4.35;2.97;;;;;;;;;;5072723;28;20439;-76
2023/08/07 04:35:13;;;;;;;2.97;2.43;;;;;;;;;;5073464;28;20023;-75
2023/08/07 04:37:38;;;;;;;6.07;2.67;;;;;;;;;;5072129;28;20446;-75
2023/08/07 04:40:04;;;;;;;8.68;4.72;;;;;;;;;;5074071;28;20025;-75
2023/08/07 04:42:29;;;;;;;5.65;2.60;;;;;;;;;;5071846;28;20454;-75
2023/08/07 04:44:54;;;;;;;6.65;3.17;;;;;;;;;;5073991;28;20024;-76
2023/08/07 04:47:20;;;;;;;5.57;2.63;;;;;;;;;;5071811;28;20519;-75
2023/08/07 04:49:45;;;;;;;5.97;2.60;;;;;;;;;;5073406;28;20027;-75
2023/08/07 04:52:10;;;;;;;9.77;3.40;;;;;;;;;;5072277;28;20090;-75
2023/08/07 04:54:35;;;;;;;4.57;3.38;;;;;;;;;;5073706;28;20044;-75
2023/08/07 04:57:01;;;;;;;15.63;4.25;;;;;;;;;;5071715;28;20032;-76
2023/08/07 04:59:26;;;;;;;9.03;5.17;;;;;;;;;;5073473;28;20078;-75
2023/08/07 05:01:51;;;;;;;5.97;2.80;;;;;;;;;;5071264;28;20447;-74
2023/08/07 05:04:16;;;;;;;3.90;3.13;;;;;;;;;;5063800;28;20142;-74
2023/08/07 05:06:42;;;;;;;12.23;3.20;;;;;;;;;;5052037;28;20056;-76
2023/08/07 05:09:07;;;;;;;19.10;4.72;;;;;;;;;;5064180;28;20472;-69
2023/08/07 05:11:33;;;;;;;9.32;4.03;;;;;;;;;;5077912;28;20036;-69
2023/08/07 05:13:59;;;;;;;9.88;4.88;;;;;;;;;;5093804;28;20078;-69
2023/08/07 05:16:24;;;;;;;8.40;3.83;;;;;;;;;;5086168;28;20446;-70
2023/08/07 05:18:49;;;;;;;7.73;4.00;;;;;;;;;;5072643;28;20048;-69
2023/08/07 05:21:15;;;;;;;8.18;3.60;;;;;;;;;;5071450;28;20482;-70
2023/08/07 05:23:40;;;;;;;11.80;4.67;;;;;;;;;;5070343;28;20060;-71
2023/08/07 05:26:05;;;;;;;6.78;4.22;;;;;;;;;;5071251;28;20033;-72
2023/08/07 05:28:30;;;;;;;12.10;5.47;;;;;;;;;;5057085;28;20048;-73
2023/08/07 05:30:55;;;;;;;15.70;6.10;;;;;;;;;;5049587;28;20028;-73
2023/08/07 05:33:20;;;;;;;13.45;5.80;;;;;;;;;;5059141;28;20427;-73
2023/08/07 05:35:46;;;;;;;14.37;5.80;;;;;;;;;;5071307;28;20063;-72
2023/08/07 05:38:11;;;;;;;12.05;4.95;;;;;;;;;;5092210;28;20016;-73
2023/08/07 05:40:36;;;;;;;18.63;5.45;;;;;;;;;;5091245;28;20044;-73
2023/08/07 05:43:01;;;;;;;14.80;6.88;;;;;;;;;;5070431;28;20533;-72
2023/08/07 05:45:27;;;;;;;6.00;3.58;;;;;;;;;;5071593;28;20127;-72
2023/08/07 05:47:52;;;;;;;19.35;6.53;;;;;;;;;;5067765;28;20044;-72
2023/08/07 05:50:17;;;;;;;8.82;4.28;;;;;;;;;;5071179;28;20056;-72
2023/08/07 05:52:42;;;;;;;14.07;5.43;;;;;;;;;;5070261;28;20033;-71
2023/08/07 05:55:08;;;;;;;13.18;4.15;;;;;;;;;;5069959;28;20443;-74
2023/08/07 05:57:33;;;;;;;17.63;6.32;;;;;;;;;;5070235;28;20564;-73
2023/08/07 05:59:58;;;;;;;14.77;5.73;;;;;;;;;;5071665;28;20493;-77
2023/08/07 06:02:23;;;;;;;11.97;4.73;;;;;;;;;;5068427;28;21099;-76
2023/08/07 06:04:48;;;;;;;8.45;4.00;;;;;;;;;;5071195;28;20541;-77
2023/08/07 06:07:14;;;;;;;9.83;5.10;;;;;;;;;;5069948;28;20133;-78
2023/08/07 06:09:39;;;;;;;11.23;5.23;;;;;;;;;;5070493;28;20439;-78
2023/08/07 06:12:04;;;;;;;7.37;4.33;;;;;;;;;;5068226;28;20043;-78
2023/08/07 06:14:30;;;;;;;14.90;5.28;;;;;;;;;;5068699;28;20055;-79
2023/08/07 06:16:57;;;;;;;18.15;6.65;;;;;;;;;;5069040;28;20491;-79
2023/08/07 06:19:22;;;;;;;14.53;6.03;;;;;;;;;;5070230;28;20040;-79
2023/08/07 06:21:48;;;;;;;22.97;8.07;;;;;;;;;;5069485;28;20439;-79
2023/08/07 06:24:13;;;;;;;10.17;6.20;;;;;;;;;;5070160;28;20451;-79
2023/08/07 06:26:38;;;;;;;12.37;4.07;;;;;;;;;;5070206;28;20504;-79
2023/08/07 06:29:04;;;;;;;5.72;3.67;;;;;;;;;;5071605;28;20063;-79
2023/08/07 06:31:29;;;;;;;13.77;4.93;;;;;;;;;;5068458;28;20025;-79
2023/08/07 06:33:54;;;;;;;13.13;3.63;;;;;;;;;;5070668;28;20016;-75
2023/08/07 06:36:19;;;;;;;10.57;4.97;;;;;;;;;;5069229;28;20091;-75
2023/08/07 06:38:45;;;;;;;7.93;3.70;;;;;;;;;;5069703;28;20435;-76
2023/08/07 06:41:10;;;;;;;11.90;4.78;;;;;;;;;;5066177;28;20032;-75
2023/08/07 06:43:35;;;;;;;6.57;3.75;;;;;;;;;;5065778;28;20409;-76
2023/08/07 06:46:00;;;;;;;11.93;4.20;;;;;;;;;;5051915;28;20099;-75
2023/08/07 06:48:26;;;;;;;10.65;3.83;;;;;;;;;;5055120;28;20404;-76
2023/08/07 06:50:51;;;;;;;8.37;3.23;;;;;;;;;;5070010;28;20430;-76
2023/08/07 06:53:16;;;;;;;8.93;3.97;;;;;;;;;;5089259;28;20438;-75
2023/08/07 06:55:42;;;;;;;13.93;6.18;;;;;;;;;;5088523;28;20457;-76
2023/08/07 06:58:08;;;;;;;14.75;5.07;;;;;;;;;;5068578;28;20020;-76
2023/08/07 07:00:34;;;;;;;15.38;6.30;;;;;;;;;;5069435;28;20046;-77
2023/08/07 07:03:00;;;;;;;13.23;4.97;;;;;;;;;;5067357;28;20120;-76
2023/08/07 07:05:25;;;;;;;14.85;4.72;;;;;;;;;;5070026;28;20151;-76
2023/08/07 07:07:50;;;;;;;11.93;4.43;;;;;;;;;;5068036;28;20039;-76
2023/08/07 07:10:15;;;;;;;23.30;8.77;;;;;;;;;;5065927;28;20663;-76
2023/08/07 07:12:40;;;;;;;21.67;5.75;;;;;;;;;;5068910;28;20451;-76
2023/08/07 07:15:06;;;;;;;8.17;3.73;;;;;;;;;;5068089;28;20024;-79
2023/08/07 07:17:31;;;;;;;8.25;4.05;;;;;;;;;;5067769;28;20044;-78
2023/08/07 07:19:56;;;;;;;11.63;3.43;;;;;;;;;;5070611;28;20082;-77
2023/08/07 07:22:23;;;;;;;11.43;5.35;;;;;;;;;;5067627;28;20050;-77
2023/08/07 07:24:48;;;;;;;15.70;7.10;;;;;;;;;;5070456;28;20020;-77
2023/08/07 07:27:13;;;;;;;14.48;4.80;;;;;;;;;;5068421;28;20064;-77
2023/08/07 07:29:38;;;;;;;7.57;3.70;;;;;;;;;;5069608;28;20070;-76
2023/08/07 07:32:03;;;;;;;15.33;5.63;;;;;;;;;;5068642;28;20646;-75
2023/08/07 07:34:29;;;;;;;9.38;5.70;;;;;;;;;;5068303;28;20437;-75
2023/08/07 07:36:54;;;;;;;14.45;4.80;;;;;;;;;;5068029;28;20033;-75
2023/08/07 07:39:19;;;;;;;14.40;5.47;;;;;;;;;;5069630;28;20031;-75
2023/08/07 07:41:44;;;;;;;23.55;12.70;;;;;;;;;;5068114;28;20510;-74
2023/08/07 07:44:10;;;;;;;11.63;5.15;;;;;;;;;;5069071;28;20027;-74
2023/08/07 07:46:35;;;;;;;12.40;3.67;;;;;;;;;;5066657;28;20032;-75
2023/08/07 07:49:00;;;;;;;14.32;5.20;;;;;;;;;;5069409;28;20021;-74
2023/08/07 07:51:26;;;;;;;19.88;5.55;;;;;;;;;;5065701;28;20044;-73
2023/08/07 07:53:51;;;;;;;15.20;6.20;;;;;;;;;;5068822;28;20016;-74
2023/08/07 07:56:16;;;;;;;19.53;6.50;;;;;;;;;;5067781;28;20466;-73
2023/08/07 07:58:41;;;;;;;8.80;4.57;;;;;;;;;;5069961;28;20420;-74
2023/08/07 08:01:07;;;;;;;15.82;5.65;;;;;;;;;;5067310;28;21135;-73
2023/08/07 08:03:32;;;;;;;10.93;4.68;;;;;;;;;;5069887;28;20020;-73
2023/08/07 08:05:57;;;;;;;10.75;5.05;;;;;;;;;;5069740;28;20024;-73
2023/08/07 08:08:22;;;;;;;16.27;5.95;;;;;;;;;;5072176;28;20017;-74
2023/08/07 08:10:48;;;;;;;11.33;4.20;;;;;;;;;;5072165;28;20020;-73
2023/08/07 08:13:14;;;;;;;21.05;8.52;;;;;;;;;;5073856;28;20538;-74
2023/08/07 08:15:39;;;;;;;10.38;4.20;;;;;;;;;;5071910;28;20062;-70
2023/08/07 08:18:04;;;;;;;14.70;4.82;;;;;;;;;;5073299;28;20045;-75
2023/08/07 08:20:31;;;;;;;8.53;4.20;;;;;;;;;;5071977;28;20032;-74
2023/08/07 08:22:56;;;;;;;6.22;3.78;;;;;;;;;;5070887;28;20044;-73
2023/08/07 08:25:21;;;;;;;6.47;3.35;;;;;;;;;;5072407;28;20017;-73
2023/08/07 08:27:46;;;;;;;11.35;4.10;;;;;;;;;;5071873;28;20036;-74
2023/08/07 08:30:11;;;;;;;6.85;3.80;;;;;;;;;;5073122;28;20071;-74
2023/08/07 08:32:38;;;;;;;8.60;4.28;;;;;;;;;;5070531;28;20075;-74
2023/08/07 08:35:04;;;;;;;16.48;4.35;;;;;;;;;;5073641;28;20383;-74
2023/08/07 08:37:29;;;;;;;9.02;2.88;;;;;;;;;;5071848;28;20040;-74
2023/08/07 08:39:54;;;;;;;5.80;3.30;;;;;;;;;;5073103;28;20070;-74
2023/08/07 08:42:20;;;;;;;11.00;4.03;;;;;;;;;;5071596;28;20052;-74
2023/08/07 08:44:51;;;;;;;8.88;2.92;;;;;;;;;;5073469;28;20480;-73
2023/08/07 08:47:16;;;;;;;14.30;5.13;;;;;;;;;;5071615;28;20036;-73
2023/08/07 08:49:45;;;;;;;9.60;4.60;;;;;;;;;;5073535;28;20046;-73
2023/08/07 08:52:10;;;;;;;12.85;5.13;;;;;;;;;;5071601;28;20028;-74
2023/08/07 08:54:36;;;;;;;14.97;8.10;;;;;;;;;;5072306;28;20111;-72
2023/08/07 08:57:01;;;;;;;7.07;4.15;;;;;;;;;;5066374;28;20041;-73
2023/08/07 08:59:26;;;;;;;6.47;3.85;;;;;;;;;;5070931;28;20032;-73
2023/08/07 09:01:54;;;;;;;8.98;4.80;;;;;;;;;;5073371;28;20056;-73
2023/08/07 09:04:19;;;;;;;12.77;4.93;;;;;;;;;;5092649;28;20102;-72
2023/08/07 09:06:45;;;;;;;11.93;3.77;;;;;;;;;;5090504;28;20095;-72
2023/08/07 09:09:12;;;;;;;5.75;3.28;;;;;;;;;;5072331;28;20021;-73
2023/08/07 09:11:37;;;;;;;9.20;2.47;;;;;;;;;;5071490;28;20024;-72
2023/08/07 09:14:03;;;;;;;4.38;2.72;;;;;;;;;;5073011;28;20422;-74
2023/08/07 09:16:28;;;;;;;7.30;4.15;;;;;;;;;;5070064;28;20042;-72
2023/08/07 09:18:55;;;;;;;15.45;4.18;;;;;;;;;;5070232;28;20070;-73
2023/08/07 09:21:20;;;;;;;10.98;3.25;;;;;;;;;;5072530;28;20029;-74
2023/08/07 09:23:45;;;;;;;10.15;3.08;;;;;;;;;;5070895;28;20029;-72
2023/08/07 09:26:11;;;;;;;6.77;3.63;;;;;;;;;;5072686;28;20414;-72
2023/08/07 09:28:36;;;;;;;7.75;2.30;;;;;;;;;;5071195;28;20028;-73
2023/08/07 09:31:04;;;;;;;10.27;3.20;;;;;;;;;;5070803;28;20032;-73
2023/08/07 09:33:30;;;;;;;7.85;4.22;;;;;;;;;;5072486;28;20016;-72
2023/08/07 09:35:58;;;;;;;3.88;2.83;;;;;;;;;;5071145;28;20025;-74
2023/08/07 09:38:27;;;;;;;9.82;2.60;;;;;;;;;;5071577;28;20336;-72
2023/08/07 09:40:52;;;;;;;7.85;2.60;;;;;;;;;;5070441;28;20013;-72
2023/08/07 09:43:22;;;;;;;12.32;3.30;;;;;;;;;;5072187;28;20078;-73
2023/08/07 09:45:50;;;;;;;16.13;3.85;;;;;;;;;;5070525;28;20089;-72
2023/08/07 09:48:15;;;;;;;11.75;4.35;;;;;;;;;;5070907;28;20024;-73
2023/08/07 09:50:40;;;;;;;7.30;2.75;;;;;;;;;;5070872;28;20149;-71
2023/08/07 09:53:05;;;;;;;9.00;3.20;;;;;;;;;;5071363;28;20036;-73
2023/08/07 09:55:31;;;;;;;9.80;4.80;;;;;;;;;;5071240;28;20028;-73
2023/08/07 09:57:56;;;;;;;9.75;4.38;;;;;;;;;;5069979;28;21039;-73
2023/08/07 10:00:22;;;;;;;6.28;3.30;;;;;;;;;;5071371;28;20021;-73
2023/08/07 10:02:47;;;;;;;6.67;3.27;;;;;;;;;;5070544;28;20427;-74
2023/08/07 10:05:13;;;;;;;12.70;3.88;;;;;;;;;;5071821;28;20059;-74
2023/08/07 10:07:39;;;;;;;9.63;2.70;;;;;;;;;;5069507;28;20042;-74
2023/08/07 10:10:04;;;;;;;10.63;2.92;;;;;;;;;;5072026;28;20028;-74
2023/08/07 10:12:29;;;;;;;17.17;4.47;;;;;;;;;;5070101;28;20040;-74
2023/08/07 10:14:55;;;;;;;12.65;3.55;;;;;;;;;;5070819;28;20040;-74
2023/08/07 10:17:23;;;;;;;9.60;4.40;;;;;;;;;;5069394;28;20044;-74
2023/08/07 10:19:48;;;;;;;13.68;5.72;;;;;;;;;;5070909;28;20614;-75
2023/08/07 10:22:15;;;;;;;7.53;4.20;;;;;;;;;;5068879;28;20123;-75
2023/08/07 10:24:40;;;;;;;4.25;2.70;;;;;;;;;;5071462;28;20447;-74
2023/08/07 10:27:06;;;;;;;8.32;2.83;;;;;;;;;;5069792;28;20506;-73
2023/08/07 10:29:32;;;;;;;7.22;3.33;;;;;;;;;;5069589;28;20020;-75
2023/08/07 10:31:58;;;;;;;5.45;2.33;;;;;;;;;;5069559;28;20040;-76
2023/08/07 10:34:23;;;;;;;4.28;2.20;;;;;;;;;;5069940;28;20028;-75
2023/08/07 10:36:49;;;;;;;4.33;2.07;;;;;;;;;;5068087;28;20036;-74
2023/08/07 10:39:15;;;;;;;8.60;2.15;;;;;;;;;;5068758;28;20051;-75
2023/08/07 10:41:41;;;;;;;5.95;2.17;;;;;;;;;;5068573;28;20033;-74
2023/08/07 10:44:23;;;;;;;10.32;2.28;;;;;;;;;;5052437;28;20021;-75
2023/08/07 10:46:50;;;;;;;4.50;2.45;;;;;;;;;;5049336;28;20036;-74
2023/08/07 10:49:34;;;;;;;5.68;2.60;;;;;;;;;;5050587;28;20044;-73
2023/08/07 10:52:09;;;;;;;4.90;2.08;;;;;;;;;;5050120;28;20404;-74
2023/08/07 10:54:43;;;;;;;5.57;2.38;;;;;;;;;;5050805;28;20082;-74
2023/08/07 10:57:12;;;;;;;50.88;33.53;;;;;;;;;;5061037;28;20037;-75
2023/08/07 10:59:38;;;;;;;5.05;1.95;;;;;;;;;;5070469;28;20012;-74
2023/08/07 11:02:07;;;;;;;4.35;1.80;;;;;;;;;;5058146;28;20039;-74
2023/08/07 11:04:35;;;;;;;8.73;3.25;;;;;;;;;;5050548;28;20021;-74
2023/08/07 11:07:00;;;;;;;7.50;2.15;;;;;;;;;;5049068;28;20059;-74
2023/08/07 11:09:25;;;;;;;9.20;2.23;;;;;;;;;;5050879;28;20100;-74
2023/08/07 11:11:50;;;;;;;5.90;3.60;;;;;;;;;;5049106;28;20082;-74
2023/08/07 11:14:16;;;;;;;4.40;1.60;;;;;;;;;;5050407;28;20023;-73
2023/08/07 11:16:42;;;;;;;7.25;2.00;;;;;;;;;;5049258;28;20040;-74
2023/08/07 11:19:08;;;;;;;4.65;2.55;;;;;;;;;;5048911;28;20094;-74
2023/08/07 11:21:33;;;;;;;14.07;4.22;;;;;;;;;;5048909;28;20041;-74
2023/08/07 11:23:59;;;;;;;6.68;2.42;;;;;;;;;;5062349;28;20009;-74
2023/08/07 11:26:25;;;;;;;5.70;2.47;;;;;;;;;;5067337;28;20036;-73
2023/08/07 11:28:51;;;;;;;6.05;2.85;;;;;;;;;;5070262;28;20458;-74
2023/08/07 11:31:17;;;;;;;5.70;2.35;;;;;;;;;;5068674;28;20063;-74
2023/08/07 11:33:42;;;;;;;6.65;2.55;;;;;;;;;;5069934;28;20028;-74
2023/08/07 11:36:11;;;;;;;5.70;2.60;;;;;;;;;;5068572;28;20033;-73
2023/08/07 11:38:37;;;;;;;11.57;3.67;;;;;;;;;;5070315;28;20009;-73
2023/08/07 11:41:03;;;;;;;5.63;2.97;;;;;;;;;;5067889;28;20043;-75
2023/08/07 11:43:29;;;;;;;10.57;2.85;;;;;;;;;;5069149;28;20025;-73
2023/08/07 11:45:55;;;;;;;8.18;4.30;;;;;;;;;;5068313;28;20400;-72
2023/08/07 11:48:23;;;;;;;3.95;2.90;;;;;;;;;;5068383;28;20013;-74
2023/08/07 11:50:48;;;;;;;8.40;3.38;;;;;;;;;;5068015;28;20020;-72
2023/08/07 11:53:13;;;;;;;12.50;3.22;;;;;;;;;;5069711;28;20380;-74
2023/08/07 11:55:45;;;;;;;10.10;2.27;;;;;;;;;;5069774;28;20023;-74
2023/08/07 11:58:11;;;;;;;13.93;3.10;;;;;;;;;;5068076;28;20439;-73
2023/08/07 12:00:36;;;;;;;3.83;1.90;;;;;;;;;;5070339;28;20048;-73
2023/08/07 12:03:01;;;;;;;14.43;2.93;;;;;;;;;;5068670;28;20040;-73
2023/08/07 12:05:27;;;;;;;11.02;3.90;;;;;;;;;;5068919;28;20020;-74
2023/08/07 12:07:52;;;;;;;14.10;4.63;;;;;;;;;;5068931;28;20033;-73
2023/08/07 12:10:18;;;;;;;7.10;3.90;;;;;;;;;;5068726;28;20494;-73
2023/08/07 12:12:44;;;;;;;8.23;2.35;;;;;;;;;;5068150;28;20036;-73
2023/08/07 12:15:09;;;;;;;8.75;2.65;;;;;;;;;;5069415;28;20062;-73
2023/08/07 12:17:37;;;;;;;7.07;2.60;;;;;;;;;;5068016;28;20036;-73
2023/08/07 12:20:02;;;;;;;;;;;;;;;;;;5070146;28;20463;-73
2023/08/07 12:22:28;;;;;;;6.93;2.17;;;;;;;;;;5067771;28;20466;-73
2023/08/07 12:24:54;;;;;;;6.70;2.95;;;;;;;;;;5067226;28;20091;-73
2023/08/07 12:27:19;;;;;;;6.43;2.13;;;;;;;;;;5067694;28;20114;-73
2023/08/07 12:29:44;;;;;;;5.75;2.95;;;;;;;;;;5069818;28;20024;-73
2023/08/07 12:32:09;;;;;;;8.10;2.58;;;;;;;;;;5068139;28;20120;-73
2023/08/07 12:34:35;;;;;;;5.73;2.13;;;;;;;;;;5069516;28;20012;-73
2023/08/07 12:37:00;;;;;;;6.13;3.47;;;;;;;;;;5068431;28;20477;-74
2023/08/07 12:39:25;;;;;;;11.97;3.27;;;;;;;;;;5069667;28;20024;-73
2023/08/07 12:41:50;;;;;;;9.87;3.77;;;;;;;;;;5068628;28;20128;-73
2023/08/07 12:44:16;;;;;;;10.83;2.77;;;;;;;;;;5068370;28;20020;-73
2023/08/07 12:46:41;;;;;;;4.28;2.72;;;;;;;;;;5068525;28;20044;-73
2023/08/07 12:49:09;;;;;;;5.72;3.33;;;;;;;;;;5070134;28;20024;-73
2023/08/07 12:51:34;;;;;;;7.18;1.90;;;;;;;;;;5069438;28;20033;-73
2023/08/07 12:53:59;;;;;;;9.65;5.50;;;;;;;;;;5073348;28;20099;-74
2023/08/07 12:56:24;;;;;;;12.50;6.70;;;;;;;;;;5071841;28;20043;-72
2023/08/07 12:58:50;;;;;;;9.57;6.07;;;;;;;;;;5073173;28;20038;-73
2023/08/07 13:01:15;;;;;;;5.88;2.72;;;;;;;;;;5071625;28;20036;-74
2023/08/07 13:03:40;;;;;;;8.13;2.03;;;;;;;;;;5073199;28;20036;-74
2023/08/07 13:06:07;;;;;;;3.47;1.90;;;;;;;;;;5071634;28;20029;-73
2023/08/07 13:08:33;;;;;;;3.58;1.75;;;;;;;;;;5072863;28;20020;-74
2023/08/07 13:10:58;;;;;;;4.85;2.42;;;;;;;;;;5071679;28;20061;-73
2023/08/07 13:13:23;;;;;;;65.53;14.73;;;;;;;;;;5072729;28;20485;-73
2023/08/07 13:15:48;;;;;;;5.53;2.93;;;;;;;;;;5071502;28;20028;-73
2023/08/07 13:18:16;;;;;;;6.80;3.10;;;;;;;;;;5072772;28;20027;-73
2023/08/07 13:20:41;;;;;;;11.02;7.13;;;;;;;;;;5071796;28;20455;-70
2023/08/07 13:23:06;;;;;;;7.40;3.63;;;;;;;;;;5072441;28;20040;-73
2023/08/07 13:25:32;;;;;;;3.13;1.73;;;;;;;;;;5072918;28;20052;-74
2023/08/07 13:27:57;;;;;;;4.57;1.75;;;;;;;;;;5071310;28;20032;-74
2023/08/07 13:30:22;;;;;;;2.80;1.80;;;;;;;;;;5072719;28;20420;-74
2023/08/07 13:32:47;;;;;;;9.07;2.63;;;;;;;;;;5071646;28;20450;-73
2023/08/07 13:35:12;;;;;;;10.88;3.00;;;;;;;;;;5072361;28;20035;-73
2023/08/07 13:37:37;;;;;;;6.90;2.47;;;;;;;;;;5070810;28;20068;-73
2023/08/07 13:40:04;;;;;;;3.47;2.17;;;;;;;;;;5073141;28;20024;-74
2023/08/07 13:42:29;;;;;;;4.95;2.17;;;;;;;;;;5070537;28;20062;-74
2023/08/07 13:44:55;;;;;;;7.00;2.90;;;;;;;;;;5072631;28;20096;-73
2023/08/07 13:47:20;;;;;;;6.18;2.08;;;;;;;;;;5071048;28;20029;-73
2023/08/07 13:49:46;;;;;;;7.27;1.97;;;;;;;;;;5072292;28;20048;-73
2023/08/07 13:52:11;;;;;;;4.40;1.87;;;;;;;;;;5071033;28;20478;-73
2023/08/07 13:54:36;;;;;;;6.50;3.23;;;;;;;;;;5072662;28;20945;-73
2023/08/07 13:57:01;;;;;;;6.43;2.37;;;;;;;;;;5070850;28;20036;-72
2023/08/07 13:59:26;;;;;;;6.10;2.00;;;;;;;;;;5072051;28;20434;-72
2023/08/07 14:01:52;;;;;;;3.13;2.03;;;;;;;;;;5071211;28;20033;-72
2023/08/07 14:04:17;;;;;;;3.53;1.88;;;;;;;;;;5070521;28;20457;-71
2023/08/07 14:06:43;;;;;;;6.00;2.58;;;;;;;;;;5070855;28;20492;-72
2023/08/07 14:09:09;;;;;;;3.55;2.28;;;;;;;;;;5072179;28;20016;-72
2023/08/07 14:11:34;;;;;;;4.85;1.92;;;;;;;;;;5070022;28;20054;-72
2023/08/07 14:14:00;;;;;;;2.92;2.47;;;;;;;;;;5071924;28;20020;-72
2023/08/07 14:16:25;;;;;;;5.97;1.90;;;;;;;;;;5070773;28;20060;-72
2023/08/07 14:18:50;;;;;;;6.63;2.10;;;;;;;;;;5070876;28;20503;-72
2023/08/07 14:21:15;;;;;;;6.03;2.53;;;;;;;;;;5070062;28;20036;-72
2023/08/07 14:23:42;;;;;;;3.63;1.73;;;;;;;;;;5067701;28;20439;-72
2023/08/07 14:26:07;;;;;;;4.70;2.08;;;;;;;;;;5070055;28;20487;-72
2023/08/07 14:28:32;;;;;;;5.97;2.35;;;;;;;;;;5071358;28;20024;-72